PAMC

Mc Grath Airport

Mcgrath, Alaska, USA
METAR PAMC 180853Z AUTO 11005KT 10SM -RA BKN045 OVC060 06/05 A2965 RMK AO2 SLP047 P0001 60016 T00560050 400830033 51017 TSNO
Observed Flight Rules
Oct-18 @ 08:53 UTC (60 minutes ago) Visual Flight Rules
Wind Visibility Clouds Conditions
110° at 5 knots 10 miles
  • Broken at 4,500' AGL
  • Overcast at 6,000' AGL
  • Light Rain
Temperatures Readings Precipitation
Current 6°C / 43°F
Dewpoint 5°C / 41°F
Humidity 93%
Altimeter 29.65" Hg
Pressure 1004.7 hPa
Elevation 103
Current Rain 0.01
METAR PAMC 180853Z AUTO 11005KT 10SM -RA BKN045 OVC060 06/05 A2965 RMK AO2 SLP047 P0001 60016 T00560050 400830033 51017 TSNO
Observed Flight Rules
Oct-18 @ 08:53 UTC
(60 minutes ago)
VFR
Wind Visibility
110° at 5 knots 10 miles
Clouds
  • Broken at 4,500' AGL
  • Overcast at 6,000' AGL
Conditions
  • Light Rain
Temperature Dewpoint
6°C / 43°F 5°C / 41°F
Humidity Altimeter Pressure
93% 29.65" Hg 1004.7 hPa
Current Rain
0.01